createdAt,value
2022-11-05T00:00:17.609Z,100809.63
2022-11-05T00:03:40.487Z,100845.44
2022-11-05T00:07:03.401Z,100840.84
2022-11-05T00:10:15.828Z,100842.78
2022-11-05T00:13:38.644Z,100826.09
2022-11-05T00:16:45.856Z,100821.22
2022-11-05T00:19:50.490Z,100804.03
2022-11-05T00:23:23.433Z,100824.69
2022-11-05T00:26:27.717Z,100813.03
2022-11-05T00:29:31.976Z,100822.53
2022-11-05T00:32:36.427Z,100819.09
2022-11-05T00:35:40.756Z,100818.09
2022-11-05T00:38:46.240Z,100817.75
2022-11-05T00:42:10.130Z,100823.03
2022-11-05T00:45:15.005Z,100819.81
2022-11-05T00:48:38.183Z,100826.84
2022-11-05T00:51:42.415Z,100812.53
2022-11-05T00:54:46.950Z,100830.06
2022-11-05T00:57:52.288Z,100829.00
2022-11-05T01:00:58.421Z,100836.22
2022-11-05T01:04:02.889Z,100815.16
2022-11-05T01:07:07.119Z,100816.00
2022-11-05T01:10:11.645Z,100822.63
2022-11-05T01:13:25.962Z,100809.00
2022-11-05T01:16:30.889Z,100799.53
2022-11-05T01:19:35.584Z,100800.84
2022-11-05T01:22:40.039Z,100808.63
2022-11-05T01:25:45.600Z,100823.88
2022-11-05T01:28:57.858Z,100795.00
2022-11-05T01:32:02.434Z,100811.25
2022-11-05T01:35:09.719Z,100808.66
2022-11-05T01:38:13.869Z,100799.38
2022-11-05T01:41:18.345Z,100804.41
2022-11-05T01:45:07.304Z,100803.88
2022-11-05T01:48:22.753Z,100803.59
2022-11-05T01:51:29.379Z,100779.66
2022-11-05T01:54:36.364Z,100809.66
2022-11-05T01:57:40.686Z,100811.59
2022-11-05T02:00:45.290Z,100807.00
2022-11-05T02:03:51.920Z,100818.72
2022-11-05T02:06:56.387Z,100820.53
2022-11-05T02:10:10.561Z,100808.56
2022-11-05T02:13:15.595Z,100799.81
2022-11-05T02:16:41.722Z,100800.03
2022-11-05T02:20:05.284Z,100795.41
2022-11-05T02:23:18.534Z,100801.09
2022-11-05T02:26:37.604Z,100801.69
2022-11-05T02:30:21.675Z,100802.44
2022-11-05T02:34:03.338Z,100799.13
2022-11-05T02:37:13.651Z,100804.41
2022-11-05T02:40:27.045Z,100793.75
2022-11-05T02:43:52.989Z,100781.63
2022-11-05T02:47:11.854Z,100765.97
2022-11-05T02:50:50.352Z,100784.81
2022-11-05T02:54:10.179Z,100690.13
2022-11-05T02:57:14.663Z,100780.09
2022-11-05T03:00:47.356Z,100783.28
2022-11-05T03:04:01.374Z,100772.75
2022-11-05T03:07:18.006Z,100789.34
2022-11-05T03:10:27.990Z,100777.09
2022-11-05T03:13:53.373Z,100777.41
2022-11-05T03:17:21.602Z,100762.50
2022-11-05T03:20:47.979Z,100778.44
2022-11-05T03:23:52.038Z,100764.16
2022-11-05T03:27:05.784Z,100760.66
2022-11-05T03:30:13.149Z,100754.53
2022-11-05T03:33:22.577Z,100760.84
2022-11-05T03:36:58.053Z,100758.78
2022-11-05T03:40:05.068Z,100748.22
2022-11-05T03:43:10.615Z,100734.81
2022-11-05T03:46:41.117Z,100737.47
2022-11-05T03:50:06.121Z,100730.66
2022-11-05T03:53:22.117Z,100726.97
2022-11-05T03:56:41.912Z,100741.69
2022-11-05T03:59:49.720Z,100716.50
2022-11-05T04:02:57.006Z,100731.69
2022-11-05T04:06:21.658Z,100734.28
2022-11-05T04:09:44.859Z,100731.34
2022-11-05T04:13:07.550Z,100725.22
2022-11-05T04:16:30.700Z,100734.03
2022-11-05T04:19:54.748Z,100728.47
2022-11-05T04:23:25.983Z,100718.63
2022-11-05T04:26:30.915Z,100736.09
2022-11-05T04:29:53.625Z,100739.31
2022-11-05T04:33:04.420Z,100706.28
2022-11-05T04:36:09.096Z,100733.31
2022-11-05T04:39:13.434Z,100725.41
2022-11-05T04:42:18.017Z,100726.94
2022-11-05T04:45:23.241Z,100738.59
2022-11-05T04:48:29.921Z,100741.97
2022-11-05T04:51:34.345Z,100742.47
2022-11-05T04:54:40.276Z,100738.94
2022-11-05T04:57:44.431Z,100759.50
2022-11-05T05:00:51.225Z,100759.81
2022-11-05T05:03:56.949Z,100753.50
2022-11-05T05:07:03.417Z,100753.66
2022-11-05T05:10:09.626Z,100742.50
2022-11-05T05:13:14.176Z,100739.91
2022-11-05T05:16:27.542Z,100752.38
2022-11-05T05:19:51.917Z,100741.19
2022-11-05T05:22:56.732Z,100749.94
2022-11-05T05:26:01.571Z,100770.34
2022-11-05T05:29:07.148Z,100768.34
2022-11-05T05:32:11.781Z,100764.56
2022-11-05T05:35:16.543Z,100768.72
2022-11-05T05:38:21.228Z,100769.66
2022-11-05T05:41:25.952Z,100742.47
2022-11-05T05:44:30.470Z,100758.13
2022-11-05T05:47:34.672Z,100740.47
2022-11-05T05:50:39.371Z,100758.78
2022-11-05T05:53:47.442Z,100761.59
2022-11-05T05:56:51.594Z,100763.69
2022-11-05T05:59:56.041Z,100773.34
2022-11-05T06:03:00.961Z,100772.16
2022-11-05T06:06:19.794Z,100783.22
2022-11-05T06:09:24.451Z,100779.84
2022-11-05T06:12:31.287Z,100755.06
2022-11-05T06:15:36.326Z,100786.16
2022-11-05T06:18:41.209Z,100798.31
2022-11-05T06:21:45.653Z,100798.25
2022-11-05T06:24:50.026Z,100798.16
2022-11-05T06:27:55.307Z,100800.75
2022-11-05T06:30:59.766Z,100788.75
2022-11-05T06:34:04.093Z,100803.66
2022-11-05T06:37:08.655Z,100797.88
2022-11-05T06:40:13.215Z,100807.56
2022-11-05T06:43:18.395Z,100795.50
2022-11-05T06:46:22.808Z,100791.75
2022-11-05T06:49:27.619Z,100782.56
2022-11-05T06:52:34.874Z,100766.47
2022-11-05T06:55:43.142Z,100785.41
2022-11-05T06:58:47.696Z,100788.56
2022-11-05T07:01:53.378Z,100799.56
2022-11-05T07:04:58.005Z,100810.84
2022-11-05T07:08:02.550Z,100750.25
2022-11-05T07:11:07.783Z,100806.66
2022-11-05T07:14:12.593Z,100781.75
2022-11-05T07:17:19.504Z,100793.97
2022-11-05T07:20:23.897Z,100795.44
2022-11-05T07:23:28.478Z,100801.25
2022-11-05T07:26:34.674Z,100791.22
2022-11-05T07:29:39.271Z,100803.38
2022-11-05T07:32:43.776Z,100808.69
2022-11-05T07:35:48.565Z,100794.19
2022-11-05T07:38:58.897Z,100812.91
2022-11-05T07:42:06.505Z,100821.97
2022-11-05T07:45:11.989Z,100827.19
2022-11-05T07:48:16.430Z,100838.34
2022-11-05T07:51:20.933Z,100831.09
2022-11-05T07:54:27.328Z,100844.69
2022-11-05T07:57:31.607Z,100822.56
2022-11-05T08:00:36.368Z,100843.41
2022-11-05T08:03:42.414Z,100821.56
2022-11-05T08:06:47.123Z,100819.03
2022-11-05T08:09:53.207Z,100845.31
2022-11-05T08:12:59.855Z,100852.16
2022-11-05T08:16:06.929Z,100860.50
2022-11-05T08:19:11.394Z,100868.09
2022-11-05T08:22:16.231Z,100833.28
2022-11-05T08:25:20.744Z,100877.31
2022-11-05T08:28:28.834Z,100880.69
2022-11-05T08:31:37.853Z,100879.56
2022-11-05T08:34:42.053Z,100880.28
2022-11-05T08:37:46.829Z,100878.59
2022-11-05T08:40:58.533Z,100872.22
2022-11-05T08:44:07.301Z,100875.25
2022-11-05T08:47:12.791Z,100878.22
2022-11-05T08:50:17.334Z,100885.38
2022-11-05T08:53:22.388Z,100902.50
2022-11-05T08:56:27.054Z,100900.63
2022-11-05T08:59:32.253Z,100916.25
2022-11-05T09:02:36.788Z,100901.69
2022-11-05T09:05:43.777Z,100906.06
2022-11-05T09:08:48.286Z,100926.88
2022-11-05T09:15:17.429Z,100942.50
2022-11-05T09:18:22.128Z,100931.50
2022-11-05T09:21:26.618Z,100918.09
2022-11-05T09:24:30.834Z,100939.00
2022-11-05T09:27:36.591Z,100938.66
2022-11-05T09:30:46.519Z,100947.53
2022-11-05T09:33:51.015Z,100959.50
2022-11-05T09:36:55.878Z,100967.28
2022-11-05T09:40:00.265Z,100961.06
2022-11-05T09:43:05.815Z,100957.16
2022-11-05T09:46:21.377Z,100982.47
2022-11-05T09:49:36.289Z,100984.94
2022-11-05T09:52:41.226Z,100984.03
2022-11-05T09:56:13.389Z,100973.59
2022-11-05T09:59:27.015Z,100982.47
2022-11-05T10:02:39.066Z,100984.34
2022-11-05T10:05:44.333Z,100978.22
2022-11-05T10:09:01.874Z,100983.28
2022-11-05T10:12:18.614Z,100995.47
2022-11-05T10:15:29.521Z,100997.84
2022-11-05T10:18:40.529Z,101005.00
2022-11-05T10:22:06.162Z,101003.91
2022-11-05T10:25:22.202Z,100998.28
2022-11-05T10:28:29.960Z,101008.13
2022-11-05T10:31:38.451Z,101014.66
2022-11-05T10:34:44.280Z,101004.94
2022-11-05T10:37:48.941Z,101009.69
2022-11-05T10:41:05.639Z,101008.94
2022-11-05T10:44:42.718Z,101012.75
2022-11-05T10:48:07.196Z,100972.00
2022-11-05T10:51:11.865Z,100998.44
2022-11-05T10:54:24.507Z,101023.19
2022-11-05T10:57:38.141Z,101019.88
2022-11-05T11:01:02.364Z,101007.59
2022-11-05T11:04:24.316Z,101010.59
2022-11-05T11:07:29.005Z,101009.03
2022-11-05T11:10:41.778Z,101021.50
2022-11-05T11:14:14.438Z,101028.47
2022-11-05T11:17:27.440Z,101036.84
2022-11-05T11:20:33.589Z,101030.47
2022-11-05T11:23:41.050Z,101017.25
2022-11-05T11:26:45.252Z,101031.84
2022-11-05T11:30:01.870Z,101030.34
2022-11-05T11:33:10.543Z,101038.13
2022-11-05T11:36:17.933Z,101041.25
2022-11-05T11:39:29.705Z,101022.13
2022-11-05T11:42:42.136Z,101044.28
2022-11-05T11:46:02.144Z,101034.88
2022-11-05T11:49:32.618Z,101052.59
2022-11-05T11:52:38.818Z,101044.84
2022-11-05T11:55:59.880Z,101042.69
2022-11-05T11:59:18.386Z,101013.47
2022-11-05T12:03:20.181Z,101068.50
2022-11-05T12:06:52.236Z,101071.38
2022-11-05T12:10:02.194Z,101068.84
2022-11-05T12:13:22.213Z,101071.03
2022-11-05T12:16:32.290Z,101075.09
2022-11-05T12:19:49.123Z,101085.63
2022-11-05T12:23:38.190Z,101085.91
2022-11-05T12:26:57.486Z,101092.50
2022-11-05T12:30:24.125Z,101096.16
2022-11-05T12:33:53.502Z,101109.34
2022-11-05T12:37:15.888Z,101116.31
2022-11-05T12:40:29.410Z,101122.69
2022-11-05T12:43:39.294Z,101111.06
2022-11-05T12:47:11.228Z,101123.94
2022-11-05T12:50:18.453Z,101122.84
2022-11-05T12:53:28.656Z,101129.66
2022-11-05T12:56:39.908Z,101117.63
2022-11-05T13:00:03.124Z,101129.84
2022-11-05T13:03:28.555Z,101127.19
2022-11-05T13:06:42.018Z,101132.69
2022-11-05T13:09:49.417Z,101133.50
2022-11-05T13:13:14.877Z,101122.19
2022-11-05T13:16:39.678Z,101140.94
2022-11-05T13:20:02.326Z,101141.94
2022-11-05T13:23:27.175Z,101139.22
2022-11-05T13:26:40.133Z,101138.16
2022-11-05T13:29:55.916Z,101133.72
2022-11-05T13:33:15.151Z,101135.34
2022-11-05T13:36:56.914Z,101132.91
2022-11-05T13:40:07.612Z,101123.66
2022-11-05T13:43:42.043Z,101128.94
2022-11-05T13:47:14.889Z,101125.00
2022-11-05T13:50:31.302Z,101127.69
2022-11-05T13:54:07.429Z,101121.88
2022-11-05T13:57:24.212Z,101126.66
2022-11-05T14:00:34.084Z,101119.69
2022-11-05T14:03:45.819Z,101087.97
2022-11-05T14:06:50.219Z,101136.38
2022-11-05T14:10:06.923Z,101133.13
2022-11-05T14:13:19.869Z,101151.88
2022-11-05T14:16:27.662Z,101105.03
2022-11-05T14:19:50.047Z,101108.91
2022-11-05T14:22:54.962Z,101152.63
2022-11-05T14:26:14.584Z,101157.59
2022-11-05T14:29:24.400Z,101155.03
2022-11-05T14:32:44.673Z,101166.16
2022-11-05T14:35:49.288Z,101166.34
2022-11-05T14:39:01.413Z,101144.97
2022-11-05T14:42:31.712Z,101159.38
2022-11-05T14:45:43.319Z,101165.28
2022-11-05T14:49:09.780Z,101150.19
2022-11-05T14:52:16.477Z,101150.53
2022-11-05T14:55:39.897Z,101161.88
2022-11-05T14:58:46.152Z,101158.56
2022-11-05T15:01:50.924Z,101159.69
2022-11-05T15:05:35.854Z,101156.56
2022-11-05T15:09:17.105Z,101163.88
2022-11-05T15:12:42.757Z,101170.44
2022-11-05T15:15:51.584Z,101177.94
2022-11-05T15:18:57.622Z,101162.66
2022-11-05T15:22:08.199Z,101140.84
2022-11-05T15:25:52.973Z,101183.63
2022-11-05T15:28:58.809Z,101179.28
2022-11-05T15:32:03.907Z,101180.84
2022-11-05T15:35:28.003Z,101192.81
2022-11-05T15:38:35.135Z,101189.34
2022-11-05T15:41:39.947Z,101176.56
2022-11-05T15:45:20.401Z,101195.22
2022-11-05T15:48:24.711Z,101201.69
2022-11-05T15:51:30.610Z,101204.69
2022-11-05T15:54:35.001Z,101213.16
2022-11-05T15:57:40.701Z,101214.47
2022-11-05T16:00:48.103Z,101225.78
2022-11-05T16:03:55.193Z,101218.19
2022-11-05T16:07:07.894Z,101222.56
2022-11-05T16:10:25.572Z,101227.06
2022-11-05T16:13:33.149Z,101233.28
2022-11-05T16:16:38.989Z,101232.41
2022-11-05T16:19:43.917Z,101234.66
2022-11-05T16:22:50.389Z,101241.25
2022-11-05T16:25:54.820Z,101232.50
2022-11-05T16:29:01.488Z,101240.59
2022-11-05T16:32:18.038Z,101233.41
2022-11-05T16:35:25.337Z,101226.22
2022-11-05T16:38:30.119Z,101198.75
2022-11-05T16:41:43.758Z,101232.53
2022-11-05T16:44:48.001Z,101217.63
2022-11-05T16:47:53.541Z,101242.59
2022-11-05T16:50:58.500Z,101194.78
2022-11-05T16:54:02.759Z,101247.94
2022-11-05T16:57:09.267Z,101247.31
2022-11-05T17:00:20.607Z,101251.44
2022-11-05T17:03:25.046Z,101224.69
2022-11-05T17:06:29.623Z,101247.34
2022-11-05T17:09:35.042Z,101252.75
2022-11-05T17:12:39.870Z,101247.75
2022-11-05T17:15:46.452Z,101256.13
2022-11-05T17:18:50.770Z,101261.72
2022-11-05T17:21:54.944Z,101253.84
2022-11-05T17:24:59.290Z,101268.59
2022-11-05T17:28:04.004Z,101271.28
2022-11-05T17:31:10.690Z,101263.25
2022-11-05T17:34:14.990Z,101247.25
2022-11-05T17:37:19.315Z,101257.38
2022-11-05T17:40:24.908Z,101263.00
2022-11-05T17:43:29.178Z,101273.31
2022-11-05T17:46:33.663Z,101269.94
2022-11-05T17:49:38.288Z,101292.38
2022-11-05T17:52:43.025Z,101268.19
2022-11-05T17:55:48.141Z,101290.59
2022-11-05T17:58:52.518Z,101273.81
2022-11-05T18:01:57.072Z,101283.63
2022-11-05T18:05:01.568Z,101288.13
2022-11-05T18:08:08.298Z,101290.16
2022-11-05T18:11:12.833Z,101266.59
2022-11-05T18:14:22.817Z,101298.44
2022-11-05T18:17:28.566Z,101294.72
2022-11-05T18:20:32.992Z,101288.97
2022-11-05T18:23:37.328Z,101283.91
2022-11-05T18:26:41.438Z,101294.28
2022-11-05T18:29:46.961Z,101263.72
2022-11-05T18:32:51.967Z,101285.63
2022-11-05T18:35:56.737Z,101289.44
2022-11-05T18:39:02.711Z,101285.41
2022-11-05T18:42:07.048Z,101284.34
2022-11-05T18:45:13.124Z,101281.59
2022-11-05T18:48:17.539Z,101283.06
2022-11-05T18:51:21.884Z,101286.88
2022-11-05T18:54:26.143Z,101275.22
2022-11-05T18:57:30.858Z,101293.94
2022-11-05T19:00:35.301Z,101285.66
2022-11-05T19:03:40.354Z,101290.03
2022-11-05T19:06:44.710Z,101300.94
2022-11-05T19:09:48.899Z,101298.13
2022-11-05T19:12:54.104Z,101295.31
2022-11-05T19:15:58.489Z,101289.28
2022-11-05T19:19:05.523Z,101296.53
2022-11-05T19:22:11.325Z,101283.63
2022-11-05T19:25:15.679Z,101300.31
2022-11-05T19:28:21.503Z,101272.44
2022-11-05T19:31:25.915Z,101292.84
2022-11-05T19:34:30.221Z,101302.09
2022-11-05T19:37:34.670Z,101287.91
2022-11-05T19:40:39.449Z,101315.84
2022-11-05T19:43:44.115Z,101310.44
2022-11-05T19:46:48.615Z,101310.34
2022-11-05T19:49:52.748Z,101306.38
2022-11-05T19:52:57.088Z,101309.06
2022-11-05T19:56:06.487Z,101308.66
2022-11-05T19:59:13.120Z,101314.69
2022-11-05T20:02:18.226Z,101296.53
2022-11-05T20:05:22.815Z,101330.19
2022-11-05T20:08:28.192Z,101316.97
2022-11-05T20:11:33.005Z,101322.22
2022-11-05T20:14:37.624Z,101316.75
2022-11-05T20:17:42.530Z,101318.63
2022-11-05T20:20:48.344Z,101303.47
2022-11-05T20:23:52.855Z,101314.06
2022-11-05T20:26:58.127Z,101329.03
2022-11-05T20:30:02.436Z,101311.19
2022-11-05T20:33:07.572Z,101311.31
2022-11-05T20:36:17.934Z,101320.63
2022-11-05T20:39:25.095Z,101313.94
2022-11-05T20:42:29.475Z,101323.69
2022-11-05T20:45:33.739Z,101318.84
2022-11-05T20:48:38.246Z,101304.28
2022-11-05T20:51:42.909Z,101321.81
2022-11-05T20:54:47.370Z,101328.34
2022-11-05T20:57:52.135Z,101323.88
2022-11-05T21:00:57.964Z,101335.97
2022-11-05T21:04:03.645Z,101331.78
2022-11-05T21:07:08.034Z,101336.38
2022-11-05T21:10:12.750Z,101333.97
2022-11-05T21:13:17.178Z,101341.50
2022-11-05T21:16:21.710Z,101336.94
2022-11-05T21:19:26.238Z,101347.06
2022-11-05T21:22:30.633Z,101349.63
2022-11-05T21:25:35.180Z,101346.09
2022-11-05T21:28:41.043Z,101348.16
2022-11-05T21:31:46.906Z,101355.88
2022-11-05T21:34:51.164Z,101345.19
2022-11-05T21:37:55.567Z,101348.44
2022-11-05T21:41:03.721Z,101364.47
2022-11-05T21:44:07.970Z,101362.56
2022-11-05T21:47:12.430Z,101374.50
2022-11-05T21:50:21.615Z,101366.56
2022-11-05T21:53:45.198Z,101375.75
2022-11-05T21:57:10.775Z,101384.69
2022-11-05T22:00:15.608Z,101379.03
2022-11-05T22:03:21.135Z,101397.38
2022-11-05T22:06:25.297Z,101400.91
2022-11-05T22:09:30.354Z,101392.72
2022-11-05T22:12:34.685Z,101406.59
2022-11-05T22:15:38.918Z,101404.31
2022-11-05T22:18:43.225Z,101400.25
2022-11-05T22:21:47.912Z,101403.50
2022-11-05T22:24:52.766Z,101393.88
2022-11-05T22:27:57.260Z,101405.78
2022-11-05T22:31:01.514Z,101428.16
2022-11-05T22:34:07.773Z,101406.88
2022-11-05T22:37:14.456Z,101432.53
2022-11-05T22:40:22.232Z,101419.25
2022-11-05T22:43:28.353Z,101435.69
2022-11-05T22:46:33.293Z,101450.78
2022-11-05T22:49:37.884Z,101451.38
2022-11-05T22:52:42.101Z,101448.38
2022-11-05T22:55:46.651Z,101450.59
2022-11-05T22:58:51.704Z,101460.06
2022-11-05T23:01:56.370Z,101456.69
2022-11-05T23:05:00.767Z,101461.22
2022-11-05T23:08:25.325Z,101466.69
2022-11-05T23:11:41.678Z,101461.44
2022-11-05T23:14:46.103Z,101465.63
2022-11-05T23:18:08.783Z,101468.63
2022-11-05T23:21:31.174Z,101454.38
2022-11-05T23:24:35.848Z,101474.28
2022-11-05T23:27:42.037Z,101483.16
2022-11-05T23:31:05.253Z,101483.06
2022-11-05T23:34:09.385Z,101487.66
2022-11-05T23:37:32.389Z,101483.19
2022-11-05T23:40:56.696Z,101483.25
2022-11-05T23:44:39.669Z,101481.25
2022-11-05T23:48:02.374Z,101477.09
2022-11-05T23:51:12.282Z,101489.22
2022-11-05T23:54:16.659Z,101495.06
2022-11-05T23:57:20.855Z,101503.06
